Time;durP1;ratioP1;P1;durP2;ratioP2;P2;SDS_P1;SDS_P2;PMS_P1;PMS_P2;Temp;Humidity;BMP_temperature;BMP_pressure;BME280_temperature;BME280_humidity;BME280_pressure;Samples;Min_cycle;Max_cycle;Signal;HPM_P1;HPM_P2
2021/09/17 00:00:39;;;;;;;51.78;36.72;;;15.80;99.90;;;;;;5018010;28;39530;-79
2021/09/17 00:03:05;;;;;;;55.72;37.78;;;15.90;99.90;;;;;;5038110;28;37375;-79
2021/09/17 00:05:32;;;;;;;55.67;36.08;;;15.80;99.90;;;;;;5041445;28;38119;-79
2021/09/17 00:07:59;;;;;;;63.20;42.08;;;15.90;99.90;;;;;;5044491;28;38233;-79
2021/09/17 00:10:25;;;;;;;74.25;44.28;;;15.90;99.90;;;;;;5021137;28;36965;-79
2021/09/17 00:12:52;;;;;;;61.38;42.22;;;15.90;99.90;;;;;;5027925;28;37595;-79
2021/09/17 00:15:18;;;;;;;54.45;39.00;;;15.90;99.90;;;;;;5039192;28;39978;-79
2021/09/17 00:17:45;;;;;;;56.83;39.47;;;15.90;99.90;;;;;;5034051;28;39452;-79
2021/09/17 00:20:14;;;;;;;51.67;36.25;;;16.00;99.90;;;;;;5013016;28;39204;-78
2021/09/17 00:22:41;;;;;;;57.05;39.42;;;16.00;99.90;;;;;;5037777;28;38220;-79
2021/09/17 00:25:08;;;;;;;61.35;41.53;;;16.00;99.90;;;;;;5042166;28;38785;-79
2021/09/17 00:27:34;;;;;;;56.13;36.40;;;16.00;99.90;;;;;;5026514;28;38879;-79
2021/09/17 00:30:01;;;;;;;51.22;35.65;;;16.00;99.90;;;;;;5020862;28;39052;-79
2021/09/17 00:32:27;;;;;;;56.30;38.63;;;16.10;99.90;;;;;;5014430;28;46574;-79
2021/09/17 00:34:53;;;;;;;56.28;38.08;;;16.10;99.90;;;;;;5022571;28;39472;-79
2021/09/17 00:37:19;;;;;;;53.00;37.05;;;16.10;99.90;;;;;;5019414;28;38542;-79
2021/09/17 00:39:46;;;;;;;52.50;37.33;;;16.10;99.90;;;;;;5023657;28;37913;-79
2021/09/17 00:42:12;;;;;;;63.65;43.08;;;16.10;99.90;;;;;;5022381;28;37333;-79
2021/09/17 00:44:38;;;;;;;61.60;42.63;;;16.10;99.90;;;;;;5022681;28;38786;-79
2021/09/17 00:47:04;;;;;;;56.50;39.40;;;16.20;99.90;;;;;;5021733;28;38077;-79
2021/09/17 00:49:30;;;;;;;56.15;40.42;;;16.10;99.90;;;;;;5018504;28;38515;-79
2021/09/17 00:51:56;;;;;;;61.50;41.53;;;16.10;99.90;;;;;;5019428;28;37074;-79
2021/09/17 00:54:22;;;;;;;65.53;43.28;;;16.10;99.90;;;;;;5023231;28;39526;-80
2021/09/17 00:56:48;;;;;;;57.17;40.13;;;16.20;99.90;;;;;;5041331;28;38422;-79
2021/09/17 00:59:15;;;;;;;55.28;39.30;;;16.20;99.90;;;;;;5041568;28;38061;-79
2021/09/17 01:01:41;;;;;;;63.55;42.80;;;16.20;99.90;;;;;;5021135;28;38140;-80
2021/09/17 01:04:10;;;;;;;60.08;41.35;;;16.20;99.90;;;;;;5038312;28;38872;-79
2021/09/17 01:06:37;;;;;;;65.95;45.15;;;16.20;99.90;;;;;;5022005;28;39019;-79
2021/09/17 01:09:05;;;;;;;55.25;39.80;;;16.10;99.90;;;;;;5019214;28;36945;-79
2021/09/17 01:11:32;;;;;;;60.67;42.75;;;16.10;99.90;;;;;;5019577;28;38677;-80
2021/09/17 01:14:00;;;;;;;75.82;49.55;;;16.20;99.90;;;;;;5020474;28;40524;-79
2021/09/17 01:16:27;;;;;;;70.45;47.08;;;16.20;99.90;;;;;;5025266;28;46980;-79
2021/09/17 01:18:53;;;;;;;64.65;43.25;;;16.20;99.90;;;;;;5046255;28;38221;-79
2021/09/17 01:21:20;;;;;;;50.05;38.47;;;16.20;99.90;;;;;;5020981;28;38048;-79
2021/09/17 01:23:47;;;;;;;55.10;41.40;;;16.20;99.90;;;;;;5038990;28;38426;-79
2021/09/17 01:26:13;;;;;;;65.55;44.67;;;16.10;99.90;;;;;;5039644;28;39813;-79
2021/09/17 01:28:40;;;;;;;68.68;44.45;;;16.20;99.90;;;;;;5035113;28;38911;-79
2021/09/17 01:31:06;;;;;;;72.65;49.15;;;16.10;99.90;;;;;;5017027;28;38175;-79
2021/09/17 01:33:33;;;;;;;65.65;46.15;;;16.10;99.90;;;;;;5019740;28;40722;-79
2021/09/17 01:36:07;;;;;;;66.55;46.05;;;16.20;99.90;;;;;;5036878;28;38635;-79
2021/09/17 01:38:35;;;;;;;66.03;43.88;;;16.20;99.90;;;;;;5019813;28;47201;-80
2021/09/17 01:41:02;;;;;;;66.45;45.10;;;16.20;99.90;;;;;;5024677;28;38394;-77
2021/09/17 01:43:28;;;;;;;68.25;45.03;;;16.20;99.90;;;;;;5044780;28;38466;-79
2021/09/17 01:45:55;;;;;;;79.45;50.70;;;16.20;99.90;;;;;;5038325;28;38466;-79
2021/09/17 01:48:21;;;;;;;67.13;45.22;;;16.20;99.90;;;;;;5044945;28;38043;-79
2021/09/17 01:50:47;;;;;;;60.38;43.25;;;16.30;99.90;;;;;;5043299;28;38451;-79
2021/09/17 01:53:13;;;;;;;76.80;48.90;;;16.30;99.90;;;;;;5044848;28;40247;-79
2021/09/17 01:55:40;;;;;;;81.47;52.50;;;16.30;99.90;;;;;;5045002;28;38762;-79
2021/09/17 01:58:07;;;;;;;67.28;45.47;;;16.30;99.90;;;;;;5025519;28;37677;-79
2021/09/17 02:00:33;;;;;;;77.47;47.17;;;16.30;99.90;;;;;;5028848;28;38343;-79
2021/09/17 02:03:01;;;;;;;83.32;53.03;;;16.40;99.90;;;;;;5025352;28;39781;-79
2021/09/17 02:05:28;;;;;;;87.68;54.92;;;16.40;99.90;;;;;;5038837;28;38160;-78
2021/09/17 02:07:57;;;;;;;90.90;55.83;;;16.40;99.90;;;;;;5041861;28;38004;-79
2021/09/17 02:10:24;;;;;;;75.35;50.88;;;16.40;99.90;;;;;;5040332;28;37309;-80
2021/09/17 02:12:50;;;;;;;76.95;52.10;;;16.40;99.90;;;;;;5022658;28;39785;-79
2021/09/17 02:15:16;;;;;;;76.72;48.83;;;16.40;99.90;;;;;;5021820;28;38706;-78
2021/09/17 02:17:42;;;;;;;73.93;47.78;;;16.40;99.90;;;;;;5024794;28;36884;-78
2021/09/17 02:20:09;;;;;;;76.30;48.67;;;16.40;99.90;;;;;;5018224;28;37615;-79
2021/09/17 02:22:35;;;;;;;78.65;50.90;;;16.40;99.90;;;;;;5042121;28;38417;-78
2021/09/17 02:25:03;;;;;;;80.72;51.42;;;16.40;99.90;;;;;;5020598;28;39168;-79
2021/09/17 02:27:29;;;;;;;81.97;51.65;;;16.40;99.90;;;;;;5035890;28;47975;-79
2021/09/17 02:29:55;;;;;;;95.43;56.50;;;16.40;99.90;;;;;;5018991;28;38517;-78
2021/09/17 02:32:21;;;;;;;88.35;54.53;;;16.40;99.90;;;;;;5026420;28;39454;-79
2021/09/17 02:34:47;;;;;;;86.15;53.33;;;16.40;99.90;;;;;;5047192;28;39452;-80
2021/09/17 02:37:14;;;;;;;102.25;59.83;;;16.40;99.90;;;;;;5033025;28;39246;-79
2021/09/17 02:39:40;;;;;;;90.90;57.08;;;16.40;99.90;;;;;;5043231;28;38443;-79
2021/09/17 02:42:06;;;;;;;98.45;59.47;;;16.40;99.90;;;;;;5041878;28;39590;-79
2021/09/17 02:44:32;;;;;;;89.00;56.05;;;16.40;99.90;;;;;;5018539;28;38951;-78
2021/09/17 02:46:58;;;;;;;92.45;54.75;;;16.40;99.90;;;;;;5033068;28;38238;-79
2021/09/17 02:49:24;;;;;;;100.43;59.17;;;16.40;99.90;;;;;;5021419;28;36421;-79
2021/09/17 02:51:51;;;;;;;100.07;57.90;;;16.40;99.90;;;;;;5020484;28;39140;-79
2021/09/17 02:54:17;;;;;;;86.80;54.15;;;16.40;99.90;;;;;;5009166;28;39094;-79
2021/09/17 02:56:43;;;;;;;93.50;55.97;;;16.40;99.90;;;;;;5018599;28;39890;-79
2021/09/17 02:59:09;;;;;;;97.35;57.08;;;16.40;99.90;;;;;;5023106;28;38469;-79
2021/09/17 03:01:35;;;;;;;96.35;56.75;;;16.40;99.90;;;;;;5010461;28;39608;-79
2021/09/17 03:04:01;;;;;;;93.20;57.35;;;16.30;99.90;;;;;;5017000;28;38346;-79
2021/09/17 03:06:27;;;;;;;98.50;59.15;;;16.30;99.90;;;;;;5021307;28;38086;-79
2021/09/17 03:08:53;;;;;;;93.68;55.70;;;16.30;99.90;;;;;;5023176;28;37655;-78
2021/09/17 03:11:19;;;;;;;105.80;63.25;;;16.30;99.90;;;;;;5020352;28;38529;-79
2021/09/17 03:13:45;;;;;;;106.40;62.75;;;16.30;99.90;;;;;;5023943;28;38577;-78
2021/09/17 03:16:12;;;;;;;85.63;54.42;;;16.40;99.90;;;;;;5022637;28;38579;-78
2021/09/17 03:18:38;;;;;;;94.25;57.25;;;16.30;99.90;;;;;;5020698;28;38433;-79
2021/09/17 03:21:04;;;;;;;100.95;58.47;;;16.40;99.90;;;;;;5018997;28;40391;-78
2021/09/17 03:23:31;;;;;;;86.22;53.53;;;16.40;99.90;;;;;;5023745;28;38346;-78
2021/09/17 03:25:57;;;;;;;94.80;55.97;;;16.40;99.90;;;;;;5020051;28;39671;-78
2021/09/17 03:28:24;;;;;;;98.00;55.75;;;16.40;99.90;;;;;;5023653;28;37982;-80
2021/09/17 03:30:50;;;;;;;105.43;61.45;;;16.40;99.90;;;;;;5018380;28;39506;-80
2021/09/17 03:33:16;;;;;;;94.93;57.10;;;16.40;99.90;;;;;;5023141;28;37284;-79
2021/09/17 03:35:44;;;;;;;102.72;58.53;;;16.40;99.90;;;;;;5024718;28;38422;-80
2021/09/17 03:38:10;;;;;;;94.40;55.33;;;16.40;99.90;;;;;;5024153;28;38268;-80
2021/09/17 03:40:38;;;;;;;101.57;58.25;;;16.40;99.90;;;;;;5020483;28;38877;-80
2021/09/17 03:43:05;;;;;;;101.75;59.47;;;16.40;99.90;;;;;;5036773;28;39965;-80
2021/09/17 03:45:32;;;;;;;96.45;56.97;;;16.40;99.90;;;;;;5020645;28;48419;-80
2021/09/17 03:48:03;;;;;;;93.65;55.78;;;16.40;99.90;;;;;;5021397;28;37288;-80
2021/09/17 03:50:29;;;;;;;95.35;55.60;;;16.40;99.90;;;;;;5014098;28;48319;-80
2021/09/17 03:52:55;;;;;;;99.15;55.38;;;16.40;99.90;;;;;;5016200;28;37291;-80
2021/09/17 03:55:21;;;;;;;96.10;56.03;;;16.40;99.90;;;;;;5017739;28;37088;-78
2021/09/17 03:57:47;;;;;;;109.10;58.13;;;16.40;99.90;;;;;;5019350;28;38899;-78
2021/09/17 04:00:14;;;;;;;86.18;51.90;;;16.40;99.90;;;;;;5012771;28;39454;-79
2021/09/17 04:02:40;;;;;;;82.28;49.47;;;16.40;99.90;;;;;;5019480;28;38578;-79
2021/09/17 04:05:06;;;;;;;105.43;57.28;;;16.40;99.90;;;;;;5020292;28;37810;-78
2021/09/17 04:07:40;;;;;;;89.82;53.33;;;16.40;99.90;;;;;;5022189;28;37507;-79
2021/09/17 04:10:08;;;;;;;115.78;59.95;;;16.40;99.90;;;;;;5018049;28;39540;-78
2021/09/17 04:12:34;;;;;;;94.90;55.33;;;16.40;99.90;;;;;;5018190;28;39252;-79
2021/09/17 04:15:00;;;;;;;102.65;56.60;;;16.40;99.90;;;;;;5021856;28;38759;-79
2021/09/17 04:17:26;;;;;;;110.18;62.08;;;16.40;99.90;;;;;;5016997;28;40248;-79
2021/09/17 04:19:52;;;;;;;83.85;50.60;;;16.40;99.90;;;;;;5016515;28;40151;-78
2021/09/17 04:22:19;;;;;;;92.68;54.33;;;16.40;99.90;;;;;;5017038;28;38957;-79
2021/09/17 04:24:45;;;;;;;105.75;59.15;;;16.40;99.90;;;;;;5020966;28;38283;-79
2021/09/17 04:27:12;;;;;;;93.60;55.97;;;16.30;99.90;;;;;;5015351;28;37907;-79
2021/09/17 04:29:39;;;;;;;112.82;61.55;;;16.40;99.90;;;;;;5008908;28;40525;-79
2021/09/17 04:32:05;;;;;;;104.57;56.00;;;16.40;99.90;;;;;;5021974;28;41423;-79
2021/09/17 04:34:31;;;;;;;97.55;57.83;;;16.30;99.90;;;;;;5020499;28;38180;-78
2021/09/17 04:36:57;;;;;;;113.97;62.72;;;16.40;99.90;;;;;;5022481;28;37508;-79
2021/09/17 04:39:23;;;;;;;101.82;57.38;;;16.40;99.90;;;;;;5038212;28;40328;-78
2021/09/17 04:41:49;;;;;;;92.78;56.80;;;16.30;99.90;;;;;;5020600;28;38349;-78
2021/09/17 04:44:15;;;;;;;102.43;58.33;;;16.30;99.90;;;;;;5019778;28;38580;-79
2021/09/17 04:46:42;;;;;;;99.88;56.78;;;16.30;99.90;;;;;;5021018;28;38987;-79
2021/09/17 04:49:08;;;;;;;110.97;60.10;;;16.20;99.90;;;;;;5024140;28;39338;-78
2021/09/17 04:51:34;;;;;;;115.25;60.08;;;16.20;99.90;;;;;;5023949;28;38724;-78
2021/09/17 04:54:00;;;;;;;98.68;55.90;;;16.30;99.90;;;;;;5027810;28;38969;-79
2021/09/17 04:56:26;;;;;;;104.40;57.05;;;16.20;99.90;;;;;;5019954;28;39270;-79
2021/09/17 04:58:52;;;;;;;118.68;61.38;;;16.20;99.90;;;;;;5028977;28;38981;-79
2021/09/17 05:01:18;;;;;;;97.35;55.95;;;16.20;99.90;;;;;;5018534;28;38542;-78
2021/09/17 05:03:44;;;;;;;88.60;51.92;;;16.20;99.90;;;;;;5039665;28;38325;-79
2021/09/17 05:06:10;;;;;;;80.85;50.08;;;16.20;99.90;;;;;;5019828;28;37952;-78
2021/09/17 05:08:37;;;;;;;117.28;63.53;;;16.20;99.90;;;;;;5020961;28;40403;-79
2021/09/17 05:11:03;;;;;;;110.68;58.47;;;16.30;99.90;;;;;;5028413;28;39467;-79
2021/09/17 05:13:29;;;;;;;122.80;62.78;;;16.20;99.90;;;;;;5036598;28;37815;-79
2021/09/17 05:15:55;;;;;;;97.43;56.05;;;16.20;99.90;;;;;;5037021;28;37521;-79
2021/09/17 05:18:23;;;;;;;112.30;61.25;;;16.10;99.90;;;;;;5027064;28;40549;-78
2021/09/17 05:20:49;;;;;;;111.90;60.35;;;16.10;99.90;;;;;;5032743;28;38463;-78
2021/09/17 05:23:15;;;;;;;118.78;61.80;;;16.10;99.90;;;;;;5024535;28;40046;-78
2021/09/17 05:25:41;;;;;;;89.13;53.05;;;16.10;99.90;;;;;;5039736;28;37138;-78
2021/09/17 05:28:07;;;;;;;81.13;49.65;;;16.10;99.90;;;;;;5033958;28;37767;-78
2021/09/17 05:30:33;;;;;;;106.00;57.45;;;16.10;99.90;;;;;;5036074;28;38473;-79
2021/09/17 05:33:00;;;;;;;101.35;56.78;;;16.10;99.90;;;;;;5038170;28;38414;-79
2021/09/17 05:35:26;;;;;;;117.43;59.65;;;16.10;99.90;;;;;;5038463;28;38839;-78
2021/09/17 05:37:52;;;;;;;90.82;56.75;;;16.10;99.90;;;;;;5038567;28;39413;-78
2021/09/17 05:40:18;;;;;;;93.88;53.60;;;16.10;99.90;;;;;;5038338;28;39346;-79
2021/09/17 05:42:44;;;;;;;91.65;52.63;;;16.00;99.90;;;;;;5038561;28;38022;-78
2021/09/17 05:45:10;;;;;;;113.03;60.85;;;16.10;99.90;;;;;;5018903;28;39002;-78
2021/09/17 05:47:38;;;;;;;118.75;61.05;;;16.00;99.90;;;;;;5030095;28;39818;-79
2021/09/17 05:50:05;;;;;;;102.38;57.03;;;16.00;99.90;;;;;;5017494;28;38460;-78
2021/09/17 05:52:31;;;;;;;109.20;60.80;;;16.00;99.90;;;;;;5038968;28;37614;-79
2021/09/17 05:54:57;;;;;;;111.65;59.75;;;16.00;99.90;;;;;;5040108;28;37658;-79
2021/09/17 05:57:24;;;;;;;110.15;60.70;;;16.00;99.90;;;;;;5036853;28;38323;-79
2021/09/17 05:59:50;;;;;;;126.80;66.03;;;16.00;99.90;;;;;;5042184;28;38579;-78
2021/09/17 06:02:16;;;;;;;114.25;60.78;;;16.00;99.90;;;;;;5035416;28;38803;-79
2021/09/17 06:04:42;;;;;;;106.68;60.38;;;16.10;99.90;;;;;;5025372;28;38321;-79
2021/09/17 06:07:08;;;;;;;99.93;58.58;;;16.10;99.90;;;;;;5024968;28;39575;-79
2021/09/17 06:09:35;;;;;;;89.75;55.45;;;16.10;99.90;;;;;;5042191;28;39016;-78
2021/09/17 06:12:02;;;;;;;115.43;65.18;;;16.10;99.90;;;;;;5015396;28;39975;-77
2021/09/17 06:14:28;;;;;;;94.35;56.13;;;16.10;99.90;;;;;;5037565;28;36812;-78
2021/09/17 06:16:54;;;;;;;89.38;55.65;;;16.20;99.90;;;;;;5026215;28;40350;-78
2021/09/17 06:19:20;;;;;;;104.88;59.63;;;16.10;99.90;;;;;;5036688;28;38399;-78
2021/09/17 06:21:46;;;;;;;91.03;54.70;;;16.20;99.90;;;;;;5039266;28;38497;-79
2021/09/17 06:24:13;;;;;;;93.10;57.03;;;16.20;99.90;;;;;;5023553;28;38270;-79
2021/09/17 06:26:39;;;;;;;94.40;56.38;;;16.30;99.90;;;;;;5035683;28;38543;-78
2021/09/17 06:29:07;;;;;;;87.63;55.15;;;16.30;99.90;;;;;;5034245;28;39253;-78
2021/09/17 06:31:34;;;;;;;92.05;56.53;;;16.40;99.90;;;;;;5015048;28;38375;-78
2021/09/17 06:34:01;;;;;;;85.78;52.45;;;16.40;99.90;;;;;;5015883;28;36320;-79
2021/09/17 06:36:27;;;;;;;90.47;54.13;;;16.50;99.90;;;;;;5018812;28;46929;-81
2021/09/17 06:38:55;;;;;;;88.90;56.78;;;16.50;99.90;;;;;;5041965;28;37262;-80
2021/09/17 06:41:22;;;;;;;90.63;56.83;;;16.60;99.90;;;;;;5045160;28;37426;-80
2021/09/17 06:43:48;;;;;;;96.10;58.15;;;16.60;99.90;;;;;;5045016;28;37568;-80
2021/09/17 06:46:14;;;;;;;86.72;52.53;;;16.60;99.90;;;;;;5016966;28;39763;-80
2021/09/17 06:48:41;;;;;;;85.63;52.45;;;16.60;99.90;;;;;;5030772;28;38668;-80
2021/09/17 06:51:07;;;;;;;79.78;52.40;;;16.60;99.90;;;;;;5046198;28;38223;-80
2021/09/17 06:53:33;;;;;;;83.50;50.50;;;16.60;99.90;;;;;;5043188;28;37351;-80
2021/09/17 06:56:00;;;;;;;95.78;57.28;;;16.70;99.90;;;;;;5041639;28;38301;-81
2021/09/17 06:58:31;;;;;;;95.63;58.15;;;16.70;99.90;;;;;;5024518;28;38784;-80
2021/09/17 07:00:59;;;;;;;86.00;52.33;;;16.70;99.90;;;;;;5045744;28;38036;-81
2021/09/17 07:03:25;;;;;;;91.38;58.00;;;16.80;99.90;;;;;;5024040;28;37917;-80
2021/09/17 07:05:52;;;;;;;87.70;55.30;;;16.80;99.90;;;;;;5037648;28;39007;-80
2021/09/17 07:08:21;;;;;;;91.85;57.47;;;16.80;99.90;;;;;;5026254;28;37819;-80
2021/09/17 07:10:48;;;;;;;99.38;58.42;;;16.80;99.90;;;;;;5026915;28;38513;-80
2021/09/17 07:13:14;;;;;;;91.25;55.00;;;16.90;99.90;;;;;;5020012;28;36486;-80
2021/09/17 07:15:41;;;;;;;90.85;57.35;;;16.90;99.90;;;;;;5021072;28;39082;-79
2021/09/17 07:18:07;;;;;;;98.22;58.33;;;17.00;99.90;;;;;;5042061;28;38785;-78
2021/09/17 07:20:35;;;;;;;103.45;61.10;;;16.90;99.90;;;;;;5043936;28;38040;-78
2021/09/17 07:23:03;;;;;;;105.97;61.22;;;17.00;99.90;;;;;;5039664;28;38400;-79
2021/09/17 07:25:33;;;;;;;90.25;55.25;;;17.00;99.90;;;;;;5041143;28;47435;-79
2021/09/17 07:27:59;;;;;;;93.15;54.65;;;17.00;99.90;;;;;;5035931;28;38052;-78
2021/09/17 07:30:25;;;;;;;96.72;57.67;;;17.10;99.90;;;;;;5035392;28;39120;-78
2021/09/17 07:32:52;;;;;;;90.82;51.80;;;17.10;99.90;;;;;;5038981;28;37761;-79
2021/09/17 07:35:18;;;;;;;101.65;57.45;;;17.10;99.90;;;;;;5023192;28;38635;-79
2021/09/17 07:37:45;;;;;;;95.68;55.67;;;17.20;99.90;;;;;;5041921;28;38784;-79
2021/09/17 07:40:16;;;;;;;95.93;54.30;;;17.10;99.90;;;;;;5035262;28;37974;-78
2021/09/17 07:42:44;;;;;;;87.72;51.67;;;17.20;99.90;;;;;;5041933;28;38829;-78
2021/09/17 07:45:10;;;;;;;86.13;49.55;;;17.10;99.90;;;;;;5014709;28;39544;-79
2021/09/17 07:47:37;;;;;;;86.50;48.90;;;17.10;99.90;;;;;;5037182;28;38397;-81
2021/09/17 07:50:06;;;;;;;80.85;45.65;;;17.10;99.90;;;;;;5041454;28;38520;-78
2021/09/17 07:52:32;;;;;;;83.45;46.30;;;17.20;99.90;;;;;;5038367;28;47116;-79
2021/09/17 07:54:58;;;;;;;81.65;46.45;;;17.20;99.90;;;;;;5043952;28;38630;-79
2021/09/17 07:57:24;;;;;;;81.32;44.88;;;17.30;99.90;;;;;;5024386;28;38904;-79
2021/09/17 07:59:50;;;;;;;83.28;47.30;;;17.50;99.90;;;;;;5043311;28;38235;-78
2021/09/17 08:02:16;;;;;;;78.80;44.35;;;17.50;99.90;;;;;;5024650;28;39419;-79
2021/09/17 08:04:42;;;;;;;78.50;44.22;;;17.60;99.90;;;;;;5027026;28;38978;-79
2021/09/17 08:07:08;;;;;;;71.18;40.80;;;17.70;99.90;;;;;;5043464;28;39358;-79
2021/09/17 08:09:35;;;;;;;74.18;41.15;;;17.90;99.90;;;;;;5043331;28;38312;-79
2021/09/17 08:12:01;;;;;;;79.78;43.75;;;17.80;99.90;;;;;;5041549;28;37909;-79
2021/09/17 08:14:28;;;;;;;81.13;43.45;;;17.70;99.90;;;;;;5031678;28;46984;-78
2021/09/17 08:16:55;;;;;;;80.50;43.72;;;17.80;99.90;;;;;;5025545;28;38293;-79
2021/09/17 08:19:21;;;;;;;77.53;42.38;;;17.70;99.90;;;;;;5043729;28;37971;-79
2021/09/17 08:21:48;;;;;;;88.93;47.65;;;17.70;99.90;;;;;;5043028;28;37676;-78
2021/09/17 08:24:16;;;;;;;80.97;42.78;;;17.80;99.90;;;;;;5047378;28;39194;-80
2021/09/17 08:26:52;;;;;;;86.05;48.45;;;18.00;99.90;;;;;;5042353;28;38662;-80
2021/09/17 08:29:19;;;;;;;75.68;44.75;;;18.00;99.90;;;;;;5044804;28;39148;-79
2021/09/17 08:31:45;;;;;;;93.05;49.28;;;17.90;99.90;;;;;;5048053;28;37363;-80
2021/09/17 08:34:11;;;;;;;89.05;47.60;;;18.00;99.90;;;;;;5030364;28;39566;-79
2021/09/17 08:36:38;;;;;;;79.32;44.70;;;18.10;99.90;;;;;;5046331;28;39405;-80
2021/09/17 08:39:06;;;;;;;82.13;44.92;;;18.20;99.90;;;;;;5044285;28;38928;-79
2021/09/17 08:41:32;;;;;;;71.38;41.10;;;18.40;99.90;;;;;;5027679;28;38433;-80
2021/09/17 08:43:59;;;;;;;74.60;42.58;;;18.50;99.90;;;;;;5047170;28;38160;-79
2021/09/17 08:46:25;;;;;;;83.07;45.17;;;18.40;99.90;;;;;;5046013;28;39135;-79
2021/09/17 08:48:52;;;;;;;77.00;44.83;;;18.50;99.90;;;;;;5042425;28;39161;-79
2021/09/17 08:51:19;;;;;;;76.50;45.58;;;18.40;99.90;;;;;;5023006;28;39165;-80
2021/09/17 08:53:46;;;;;;;72.00;42.70;;;18.40;99.90;;;;;;5044814;28;38645;-79
2021/09/17 08:56:15;;;;;;;70.20;41.78;;;18.50;99.90;;;;;;5042710;28;38717;-79
2021/09/17 08:58:46;;;;;;;66.88;41.13;;;18.80;99.90;;;;;;5043512;28;38079;-79
2021/09/17 09:01:33;;;;;;;65.82;42.30;;;18.80;99.90;;;;;;5047189;28;37402;-83
2021/09/17 09:04:02;;;;;;;72.32;43.33;;;18.80;99.90;;;;;;5043722;28;40683;-81
2021/09/17 09:06:38;;;;;;;65.93;41.45;;;19.00;99.90;;;;;;5059272;28;48885;-80
2021/09/17 09:09:18;;;;;;;66.20;41.92;;;19.20;99.90;;;;;;5062217;28;39625;-81
2021/09/17 09:11:50;;;;;;;61.72;39.22;;;19.30;99.90;;;;;;5075252;28;36643;-82
2021/09/17 09:14:25;;;;;;;59.60;39.08;;;19.40;99.90;;;;;;5086039;28;39083;-81
2021/09/17 09:16:53;;;;;;;56.17;36.25;;;19.50;99.90;;;;;;5051835;28;38136;-81
2021/09/17 09:19:23;;;;;;;59.03;37.78;;;19.50;99.90;;;;;;5050785;28;38814;-82
2021/09/17 09:21:51;;;;;;;57.47;38.05;;;19.70;99.90;;;;;;5061699;28;36912;-82
2021/09/17 09:24:23;;;;;;;54.83;35.17;;;19.90;99.90;;;;;;5065792;28;39429;-83
2021/09/17 09:27:20;;;;;;;54.70;32.88;;;19.80;99.90;;;;;;5066245;28;38873;-82
2021/09/17 09:29:51;;;;;;;51.42;32.22;;;19.60;99.90;;;;;;5037029;28;50157;-82
2021/09/17 09:32:34;;;;;;;49.93;34.43;;;19.60;99.90;;;;;;5049063;28;38106;-82
2021/09/17 09:35:04;;;;;;;52.00;32.63;;;19.50;99.90;;;;;;5059058;28;39918;-81
2021/09/17 09:37:33;;;;;;;50.40;34.50;;;19.30;99.90;;;;;;5046902;28;46783;-81
2021/09/17 09:40:16;;;;;;;48.72;33.55;;;19.10;99.90;;;;;;5066504;28;39271;-81
2021/09/17 09:42:47;;;;;;;48.22;31.85;;;19.20;99.90;;;;;;5048562;28;48385;-81
2021/09/17 09:45:24;;;;;;;55.30;35.58;;;19.50;99.90;;;;;;5047943;28;39103;-81
2021/09/17 09:47:55;;;;;;;53.10;35.60;;;19.60;99.90;;;;;;5047781;28;37868;-82
2021/09/17 09:50:30;;;;;;;49.72;33.33;;;19.80;99.90;;;;;;5047733;28;36897;-82
2021/09/17 09:53:00;;;;;;;51.55;33.08;;;20.20;99.90;;;;;;5041353;28;38176;-81
2021/09/17 09:55:27;;;;;;;45.78;31.35;;;20.30;99.90;;;;;;5041228;28;39973;-82
2021/09/17 09:57:55;;;;;;;47.05;31.58;;;20.60;99.90;;;;;;5028599;28;38196;-82
2021/09/17 10:00:23;;;;;;;46.08;31.27;;;20.70;99.90;;;;;;5028853;28;37620;-80
2021/09/17 10:03:01;;;;;;;49.83;33.70;;;20.90;99.90;;;;;;5055430;28;37968;-82
2021/09/17 10:05:30;;;;;;;40.50;30.08;;;20.90;99.90;;;;;;5057327;28;38263;-82
2021/09/17 10:07:57;;;;;;;45.38;31.45;;;20.90;99.90;;;;;;5047854;28;37537;-82
2021/09/17 10:10:26;;;;;;;37.08;24.73;;;21.30;99.90;;;;;;5045224;28;37605;-84
2021/09/17 10:12:53;;;;;;;32.67;22.63;;;21.80;99.90;;;;;;5039023;28;38378;-83
2021/09/17 10:15:19;;;;;;;31.38;22.15;;;21.80;99.90;;;;;;5047577;28;37407;-83
2021/09/17 10:17:53;;;;;;;33.88;23.42;;;21.70;99.90;;;;;;5048346;28;40355;-84
2021/09/17 10:20:20;;;;;;;32.38;24.00;;;21.60;99.90;;;;;;5065852;28;38564;-81
2021/09/17 10:22:46;;;;;;;28.10;20.23;;;21.60;99.90;;;;;;5064515;28;37965;-82
2021/09/17 10:25:26;;;;;;;25.33;19.35;;;21.60;99.90;;;;;;5051455;28;38724;-82
2021/09/17 10:28:08;;;;;;;22.42;17.67;;;21.50;99.90;;;;;;5029791;28;38181;-80
2021/09/17 10:30:38;;;;;;;25.08;17.35;;;21.70;99.90;;;;;;5035218;28;48817;-81
2021/09/17 10:33:24;;;;;;;17.83;14.82;;;21.70;99.90;;;;;;5034169;28;34417;-80
2021/09/17 10:35:51;;;;;;;20.10;13.80;;;21.90;99.90;;;;;;5033949;28;39813;-80
2021/09/17 10:38:17;;;;;;;16.13;13.00;;;22.10;99.90;;;;;;5036883;28;38061;-80
2021/09/17 10:40:54;;;;;;;18.55;13.73;;;22.30;99.90;;;;;;5028633;28;38967;-81
2021/09/17 10:43:26;;;;;;;23.48;13.90;;;22.30;99.90;;;;;;5032963;28;37784;-81
2021/09/17 10:46:04;;;;;;;15.52;12.15;;;22.30;99.90;;;;;;5032995;28;36942;-81
2021/09/17 10:48:53;;;;;;;20.38;14.65;;;22.40;99.90;;;;;;5037079;28;48620;-82
2021/09/17 10:51:52;;;;;;;17.17;13.25;;;22.30;99.90;;;;;;5034299;28;38233;-82
2021/09/17 10:54:22;;;;;;;13.82;11.02;;;21.80;99.90;;;;;;5014074;28;37732;-81
2021/09/17 10:56:48;;;;;;;12.98;10.45;;;21.80;99.90;;;;;;5032573;28;39079;-82
2021/09/17 10:59:23;;;;;;;13.25;7.68;;;22.00;99.90;;;;;;5037531;28;38774;-81
2021/09/17 11:02:01;;;;;;;8.13;6.30;;;22.20;99.90;;;;;;5049961;28;37223;-81
2021/09/17 11:04:35;;;;;;;11.07;9.30;;;22.40;99.90;;;;;;5038978;28;49259;-80
2021/09/17 11:07:16;;;;;;;10.32;8.45;;;22.80;99.90;;;;;;5033222;28;38578;-79
2021/09/17 11:09:51;;;;;;;14.43;9.80;;;22.90;99.90;;;;;;5050473;28;38877;-82
2021/09/17 11:12:29;;;;;;;12.32;9.63;;;23.00;99.90;;;;;;5026206;28;38776;-81
2021/09/17 11:15:03;;;;;;;10.60;9.05;;;23.10;99.90;;;;;;5030946;28;37333;-81
2021/09/17 11:17:38;;;;;;;14.85;10.65;;;23.10;99.90;;;;;;5055227;28;47116;-81
2021/09/17 11:20:13;;;;;;;16.40;11.63;;;22.80;99.90;;;;;;5054403;28;38349;-81
2021/09/17 11:23:05;;;;;;;16.65;12.50;;;22.80;99.90;;;;;;5052975;28;48652;-82
2021/09/17 11:25:43;;;;;;;23.42;16.13;;;22.90;99.90;;;;;;5033802;28;46997;-82
2021/09/17 11:28:27;;;;;;;20.48;12.80;;;22.50;99.90;;;;;;5046471;28;36370;-81
2021/09/17 11:31:10;;;;;;;14.48;10.95;;;21.90;99.90;;;;;;5034209;28;39987;-82
2021/09/17 11:33:37;;;;;;;12.15;9.93;;;21.50;99.90;;;;;;5032999;28;47397;-82
2021/09/17 11:36:03;;;;;;;12.25;8.07;;;21.90;99.90;;;;;;5035805;28;38274;-81
2021/09/17 11:38:30;;;;;;;10.63;8.90;;;22.30;99.90;;;;;;5037205;28;39768;-82
2021/09/17 11:40:56;;;;;;;13.05;7.35;;;22.90;99.90;;;;;;5037985;28;38248;-82
2021/09/17 11:43:24;;;;;;;10.70;7.60;;;23.00;99.90;;;;;;5040786;28;39536;-81
2021/09/17 11:45:52;;;;;;;9.63;6.65;;;23.00;99.90;;;;;;5039043;28;36028;-82
2021/09/17 11:48:26;;;;;;;12.60;7.88;;;23.20;99.90;;;;;;5031633;28;39184;-81
2021/09/17 11:50:54;;;;;;;8.70;6.13;;;23.50;99.90;;;;;;5034250;28;38591;-81
2021/09/17 11:53:21;;;;;;;8.63;6.75;;;23.40;99.90;;;;;;5041115;28;36983;-82
2021/09/17 11:55:47;;;;;;;9.15;6.63;;;23.40;99.90;;;;;;5042088;28;38111;-82
2021/09/17 11:58:13;;;;;;;7.68;5.88;;;23.40;99.90;;;;;;5061042;28;40240;-82
2021/09/17 12:00:42;;;;;;;6.85;5.13;;;23.70;99.90;;;;;;5048009;28;38978;-82
2021/09/17 12:03:09;;;;;;;7.00;5.38;;;24.20;99.90;;;;;;5045275;28;38205;-80
2021/09/17 12:05:41;;;;;;;6.38;5.78;;;24.40;99.90;;;;;;5038302;28;36912;-82
2021/09/17 12:08:07;;;;;;;6.43;4.60;;;24.60;99.90;;;;;;5059027;28;39873;-82
2021/09/17 12:10:37;;;;;;;8.73;5.07;;;24.60;99.90;;;;;;5042059;28;38680;-82
2021/09/17 12:13:08;;;;;;;5.35;4.50;;;24.20;99.90;;;;;;5035183;28;38264;-82
2021/09/17 12:15:39;;;;;;;6.47;5.35;;;23.70;99.90;;;;;;5055641;28;38275;-82
2021/09/17 12:18:08;;;;;;;6.45;4.60;;;23.30;99.90;;;;;;5036168;28;38137;-82
2021/09/17 12:21:02;;;;;;;6.93;5.22;;;23.10;99.90;;;;;;5050880;28;39225;-82
2021/09/17 12:23:37;;;;;;;6.07;4.93;;;22.90;99.90;;;;;;5037283;28;47786;-81
2021/09/17 12:26:11;;;;;;;5.88;5.28;;;22.50;99.90;;;;;;5036818;28;37989;-82
2021/09/17 12:28:38;;;;;;;6.25;5.35;;;22.20;99.90;;;;;;5057573;28;37570;-82
2021/09/17 12:31:04;;;;;;;8.35;5.53;;;21.80;99.90;;;;;;5040343;28;39000;-82
2021/09/17 12:33:32;;;;;;;7.30;5.25;;;21.50;99.90;;;;;;5053722;28;38667;-82